Flight Briefing for CMB851

Departure Arrival
Paya Lebar Airport (WSAP)
Click to view FAA NOTAMS
Yokota AFB (RJTY)
Click to view FAA NOTAMS
Departure Time Arrival Time
N/A N/A
Aircraft Distance
B757-200SF 2891nm
Departure METAR Arrival METAR
WSAP 250200Z 18006KT 9999 SCT020 BKN350 31/25 Q1011 RJTY 250156Z AUTO 21007KT 10SM CLR 29/10 A3005 RMK AO2 SLP173 T02900096 FZRANO $
Suggested Route
TOMAN L625 MEVIN B462 KAZIK Y59 AZAMA Y57 BUNGU XAC


View recent IFR Routes data
Notes
USTRANSCOM CONTRACT FLIGHT

Charts and Procedures

Charts for WSAP
No chart available
Charts for RJTY
No chart available

Windy.com Weather Map